Time;durP1;ratioP1;P1;durP2;ratioP2;P2;SDS_P1;SDS_P2;PMS_P1;PMS_P2;Temp;Humidity;BMP_temperature;BMP_pressure;BME280_temperature;BME280_humidity;BME280_pressure;Samples;Min_cycle;Max_cycle;Signal;HPM_P1;HPM_P2
2022/01/29 00:00:56;;;;;;;13.50;8.65;;;;;;;;;;5115776;28;20535;-71
2022/01/29 00:03:25;;;;;;;16.20;8.98;;;;;;;;;;5115039;28;20434;-72
2022/01/29 00:05:53;;;;;;;13.97;8.10;;;;;;;;;;5115310;28;20035;-71
2022/01/29 00:08:19;;;;;;;13.02;8.32;;;;;;;;;;5115450;28;20038;-71
2022/01/29 00:10:48;;;;;;;12.02;7.68;;;;;;;;;;5115218;28;20043;-72
2022/01/29 00:13:14;;;;;;;11.85;8.60;;;;;;;;;;5114639;28;20050;-71
2022/01/29 00:15:40;;;;;;;12.10;7.75;;;;;;;;;;5115599;28;20070;-71
2022/01/29 00:18:06;;;;;;;13.63;7.93;;;;;;;;;;5114995;28;20032;-72
2022/01/29 00:20:33;;;;;;;14.88;8.63;;;;;;;;;;5114489;28;20608;-72
2022/01/29 00:22:59;;;;;;;13.43;8.38;;;;;;;;;;5114633;28;20069;-72
2022/01/29 00:25:25;;;;;;;12.48;7.35;;;;;;;;;;5114610;28;20466;-72
2022/01/29 00:27:53;;;;;;;11.93;7.90;;;;;;;;;;5114979;28;20039;-72
2022/01/29 00:30:24;;;;;;;12.50;7.10;;;;;;;;;;5115180;28;20445;-72
2022/01/29 00:32:50;;;;;;;13.73;8.38;;;;;;;;;;5114719;28;20036;-72
2022/01/29 00:35:16;;;;;;;13.45;8.13;;;;;;;;;;5114702;28;20061;-72
2022/01/29 00:37:43;;;;;;;13.20;8.25;;;;;;;;;;5114827;28;20096;-72
2022/01/29 00:40:09;;;;;;;13.15;7.63;;;;;;;;;;5096827;28;20355;-72
2022/01/29 00:42:35;;;;;;;16.33;8.57;;;;;;;;;;5114875;28;20057;-72
2022/01/29 00:45:01;;;;;;;13.05;8.32;;;;;;;;;;5114455;28;20032;-72
2022/01/29 00:47:27;;;;;;;12.00;7.45;;;;;;;;;;5114999;28;20118;-72
2022/01/29 00:49:54;;;;;;;13.52;7.95;;;;;;;;;;5114202;28;20516;-72
2022/01/29 00:52:20;;;;;;;13.20;8.05;;;;;;;;;;5114274;28;20478;-72
2022/01/29 00:54:46;;;;;;;13.43;8.02;;;;;;;;;;5114757;28;20040;-72
2022/01/29 00:57:12;;;;;;;16.50;8.10;;;;;;;;;;5114359;28;20035;-72
2022/01/29 00:59:38;;;;;;;14.57;7.70;;;;;;;;;;5114661;28;20120;-71
2022/01/29 01:02:07;;;;;;;13.50;7.95;;;;;;;;;;5114635;28;20040;-72
2022/01/29 01:04:36;;;;;;;12.63;7.70;;;;;;;;;;5114094;28;20413;-72
2022/01/29 01:07:02;;;;;;;12.98;7.70;;;;;;;;;;5114417;28;20034;-72
2022/01/29 01:09:29;;;;;;;14.77;8.10;;;;;;;;;;5114814;28;20549;-72
2022/01/29 01:11:55;;;;;;;14.55;8.30;;;;;;;;;;5114950;28;20054;-71
2022/01/29 01:14:21;;;;;;;13.20;8.73;;;;;;;;;;5115066;28;20040;-72
2022/01/29 01:16:47;;;;;;;14.57;8.35;;;;;;;;;;5114751;28;20040;-72
2022/01/29 01:19:13;;;;;;;12.88;7.80;;;;;;;;;;5117242;28;20096;-72
2022/01/29 01:21:39;;;;;;;13.85;7.80;;;;;;;;;;5118207;28;20118;-71
2022/01/29 01:24:05;;;;;;;12.30;8.00;;;;;;;;;;5100090;28;20064;-72
2022/01/29 01:26:31;;;;;;;13.15;7.82;;;;;;;;;;5118523;28;20058;-72
2022/01/29 01:28:58;;;;;;;13.82;8.30;;;;;;;;;;5118013;28;20538;-72
2022/01/29 01:31:24;;;;;;;13.15;7.93;;;;;;;;;;5118234;28;20374;-71
2022/01/29 01:33:51;;;;;;;11.18;7.35;;;;;;;;;;5117743;28;20470;-72
2022/01/29 01:36:21;;;;;;;10.48;6.82;;;;;;;;;;5118170;28;20035;-71
2022/01/29 01:38:54;;;;;;;11.48;6.70;;;;;;;;;;5118174;28;20118;-71
2022/01/29 01:41:24;;;;;;;10.18;6.43;;;;;;;;;;5117703;28;20118;-71
2022/01/29 01:43:51;;;;;;;9.18;6.70;;;;;;;;;;5118551;28;20038;-71
2022/01/29 01:46:17;;;;;;;11.18;7.22;;;;;;;;;;5117685;28;20084;-71
2022/01/29 01:48:43;;;;;;;14.60;8.45;;;;;;;;;;5118062;28;20115;-71
2022/01/29 01:51:10;;;;;;;12.57;8.05;;;;;;;;;;5117813;28;20044;-72
2022/01/29 01:53:36;;;;;;;13.45;7.55;;;;;;;;;;5117849;28;20036;-71
2022/01/29 01:56:02;;;;;;;14.88;8.43;;;;;;;;;;5117490;28;20481;-72
2022/01/29 01:58:28;;;;;;;12.70;7.13;;;;;;;;;;5117475;28;20042;-71
2022/01/29 02:00:54;;;;;;;15.20;8.40;;;;;;;;;;5118272;28;20473;-72
2022/01/29 02:03:20;;;;;;;11.65;7.85;;;;;;;;;;5117502;28;20038;-71
2022/01/29 02:05:47;;;;;;;12.98;7.80;;;;;;;;;;5117341;28;20050;-72
2022/01/29 02:08:15;;;;;;;13.35;7.55;;;;;;;;;;5117254;28;20455;-72
2022/01/29 02:10:45;;;;;;;12.77;7.97;;;;;;;;;;5116843;28;20047;-72
2022/01/29 02:13:11;;;;;;;13.40;8.05;;;;;;;;;;5117237;28;20077;-71
2022/01/29 02:15:37;;;;;;;13.43;9.25;;;;;;;;;;5117131;28;20035;-72
2022/01/29 02:18:04;;;;;;;13.05;8.00;;;;;;;;;;5117157;28;20042;-72
2022/01/29 02:20:32;;;;;;;13.15;7.28;;;;;;;;;;5117496;28;20044;-72
2022/01/29 02:23:00;;;;;;;11.15;7.07;;;;;;;;;;5117145;28;20032;-72
2022/01/29 02:25:33;;;;;;;10.50;6.43;;;;;;;;;;5116950;28;20036;-72
2022/01/29 02:28:04;;;;;;;10.98;6.10;;;;;;;;;;5116839;28;20031;-72
2022/01/29 02:30:32;;;;;;;;;;;;;;;;;;5117343;28;20051;-71
2022/01/29 02:32:59;;;;;;;9.15;5.93;;;;;;;;;;5116502;28;19914;-72
2022/01/29 02:35:27;;;;;;;9.50;6.38;;;;;;;;;;5116499;28;20156;-72
2022/01/29 02:37:54;;;;;;;10.70;6.72;;;;;;;;;;5116563;28;20023;-72
2022/01/29 02:40:22;;;;;;;9.57;6.13;;;;;;;;;;5116973;28;20096;-72
2022/01/29 02:42:49;;;;;;;8.63;5.95;;;;;;;;;;5116485;28;20068;-71
2022/01/29 02:45:15;;;;;;;10.82;7.10;;;;;;;;;;5116530;28;20031;-72
2022/01/29 02:47:41;;;;;;;8.55;5.78;;;;;;;;;;5116615;28;20039;-72
2022/01/29 02:50:08;;;;;;;9.38;6.50;;;;;;;;;;5116909;28;20460;-71
2022/01/29 02:52:35;;;;;;;10.85;7.22;;;;;;;;;;5115998;28;20036;-72
2022/01/29 02:55:01;;;;;;;11.15;6.97;;;;;;;;;;5116400;28;20463;-72
2022/01/29 02:57:28;;;;;;;13.75;7.57;;;;;;;;;;5115985;28;20123;-71
2022/01/29 02:59:57;;;;;;;11.50;6.80;;;;;;;;;;5116846;28;20042;-72
2022/01/29 03:02:23;;;;;;;10.40;6.55;;;;;;;;;;5116041;28;20122;-71
2022/01/29 03:04:49;;;;;;;10.55;6.50;;;;;;;;;;5115974;28;20050;-72
2022/01/29 03:07:15;;;;;;;10.35;6.65;;;;;;;;;;5116138;28;20454;-72
2022/01/29 03:09:42;;;;;;;10.48;6.30;;;;;;;;;;5116611;28;20070;-71
2022/01/29 03:12:08;;;;;;;10.52;6.40;;;;;;;;;;5115444;28;20039;-72
2022/01/29 03:14:34;;;;;;;10.15;6.30;;;;;;;;;;5116268;28;20065;-71
2022/01/29 03:17:00;;;;;;;9.52;6.15;;;;;;;;;;5116581;28;20035;-71
2022/01/29 03:19:26;;;;;;;10.63;6.35;;;;;;;;;;5116623;28;20043;-72
2022/01/29 03:21:52;;;;;;;11.60;6.07;;;;;;;;;;5116309;28;20042;-72
2022/01/29 03:24:19;;;;;;;9.18;6.35;;;;;;;;;;5115799;28;20380;-72
2022/01/29 03:26:45;;;;;;;10.93;6.00;;;;;;;;;;5116011;28;20034;-71
2022/01/29 03:29:11;;;;;;;9.55;5.13;;;;;;;;;;5116345;28;20521;-71
2022/01/29 03:31:37;;;;;;;10.88;6.18;;;;;;;;;;5115600;28;20036;-71
2022/01/29 03:34:03;;;;;;;9.25;5.22;;;;;;;;;;5115921;28;20036;-71
2022/01/29 03:36:29;;;;;;;9.15;5.68;;;;;;;;;;5115564;28;20565;-71
2022/01/29 03:38:55;;;;;;;8.85;5.65;;;;;;;;;;5115821;28;20031;-71
2022/01/29 03:41:21;;;;;;;8.60;5.53;;;;;;;;;;5115344;28;20538;-71
2022/01/29 03:43:51;;;;;;;9.27;5.70;;;;;;;;;;5115488;28;20122;-72
2022/01/29 03:46:17;;;;;;;8.90;5.05;;;;;;;;;;5115628;28;20027;-72
2022/01/29 03:48:43;;;;;;;9.00;5.75;;;;;;;;;;5115237;28;20143;-71
2022/01/29 03:51:10;;;;;;;10.35;5.82;;;;;;;;;;5115891;28;20528;-71
2022/01/29 03:53:36;;;;;;;8.88;5.93;;;;;;;;;;5115568;28;20061;-71
2022/01/29 03:56:02;;;;;;;7.07;5.05;;;;;;;;;;5115778;28;20035;-72
2022/01/29 03:58:28;;;;;;;8.25;5.55;;;;;;;;;;5115518;28;20032;-71
2022/01/29 04:00:54;;;;;;;8.75;5.90;;;;;;;;;;5116109;28;20043;-72
2022/01/29 04:03:20;;;;;;;8.75;5.15;;;;;;;;;;5097005;28;20331;-71
2022/01/29 04:05:46;;;;;;;10.43;5.80;;;;;;;;;;5115428;28;20044;-72
2022/01/29 04:08:16;;;;;;;8.00;5.20;;;;;;;;;;5115102;28;20116;-72
2022/01/29 04:10:42;;;;;;;9.68;5.60;;;;;;;;;;5115988;28;20118;-72
2022/01/29 04:13:13;;;;;;;9.13;5.43;;;;;;;;;;5115143;28;20090;-72
2022/01/29 04:15:39;;;;;;;10.48;5.38;;;;;;;;;;5114752;28;20474;-71
2022/01/29 04:18:05;;;;;;;9.05;5.97;;;;;;;;;;5114930;28;20038;-72
2022/01/29 04:20:31;;;;;;;9.23;6.07;;;;;;;;;;5115495;28;20031;-71
2022/01/29 04:22:58;;;;;;;8.57;5.97;;;;;;;;;;5115133;28;20032;-71
2022/01/29 04:25:24;;;;;;;12.02;6.00;;;;;;;;;;5115355;28;20053;-71
2022/01/29 04:27:51;;;;;;;10.60;6.13;;;;;;;;;;5115348;28;20073;-72
2022/01/29 04:30:31;;;;;;;12.05;6.25;;;;;;;;;;5115401;28;20118;-71
2022/01/29 04:33:14;;;;;;;9.05;5.88;;;;;;;;;;5115428;28;20062;-72
2022/01/29 04:35:40;;;;;;;8.73;5.65;;;;;;;;;;5115482;28;20044;-72
2022/01/29 04:38:06;;;;;;;9.05;6.20;;;;;;;;;;5115166;28;20039;-72
2022/01/29 04:40:33;;;;;;;8.20;5.38;;;;;;;;;;5115710;28;20048;-72
2022/01/29 04:43:00;;;;;;;7.63;5.03;;;;;;;;;;5115200;28;20499;-72
2022/01/29 04:45:26;;;;;;;9.63;5.50;;;;;;;;;;5114802;28;20038;-71
2022/01/29 04:47:52;;;;;;;8.35;5.38;;;;;;;;;;5115004;28;20122;-71
2022/01/29 04:50:18;;;;;;;8.90;5.75;;;;;;;;;;5114997;28;20082;-71
2022/01/29 04:52:44;;;;;;;8.82;5.50;;;;;;;;;;5114866;28;20043;-72
2022/01/29 04:55:11;;;;;;;10.00;6.28;;;;;;;;;;5119032;28;20040;-71
2022/01/29 04:57:37;;;;;;;9.80;5.68;;;;;;;;;;5118861;28;20040;-71
2022/01/29 05:00:20;;;;;;;9.38;6.00;;;;;;;;;;5118949;28;20501;-71
2022/01/29 05:02:54;;;;;;;9.23;5.57;;;;;;;;;;5118465;28;20038;-71
2022/01/29 05:05:21;;;;;;;9.82;5.75;;;;;;;;;;5118675;28;20043;-71
2022/01/29 05:07:47;;;;;;;9.90;5.28;;;;;;;;;;5118688;28;20032;-72
2022/01/29 05:10:14;;;;;;;8.75;5.38;;;;;;;;;;5119028;28;20052;-72
2022/01/29 05:12:54;;;;;;;8.98;5.78;;;;;;;;;;5117931;28;20035;-72
2022/01/29 05:15:42;;;;;;;7.97;4.75;;;;;;;;;;5117982;28;20071;-72
2022/01/29 05:29:36;;;;;;;8.38;5.25;;;;;;;;;;5095852;28;20116;-72
2022/01/29 05:32:05;;;;;;;9.63;5.53;;;;;;;;;;5117921;28;20055;-72
2022/01/29 05:34:31;;;;;;;9.20;5.95;;;;;;;;;;5117874;28;20050;-72
2022/01/29 05:36:57;;;;;;;10.60;5.93;;;;;;;;;;5118244;28;20043;-72
2022/01/29 05:39:25;;;;;;;8.80;5.70;;;;;;;;;;5118120;28;20428;-72
2022/01/29 05:41:51;;;;;;;9.70;5.70;;;;;;;;;;5117674;28;20046;-72
2022/01/29 05:44:17;;;;;;;12.68;7.03;;;;;;;;;;5118038;28;20039;-72
2022/01/29 05:46:43;;;;;;;7.78;4.90;;;;;;;;;;5117394;28;20036;-72
2022/01/29 05:49:09;;;;;;;7.55;4.85;;;;;;;;;;5117561;28;20481;-71
2022/01/29 05:51:35;;;;;;;8.13;4.93;;;;;;;;;;5117495;28;20035;-72
2022/01/29 05:54:02;;;;;;;8.18;4.55;;;;;;;;;;5117794;28;20058;-72
2022/01/29 05:56:29;;;;;;;8.40;4.20;;;;;;;;;;5117720;28;20043;-72
2022/01/29 05:58:55;;;;;;;7.05;4.78;;;;;;;;;;5117264;28;20108;-72
2022/01/29 06:01:21;;;;;;;7.40;4.70;;;;;;;;;;5117956;28;20035;-72
2022/01/29 06:03:48;;;;;;;10.38;4.97;;;;;;;;;;5117293;28;20118;-72
2022/01/29 06:06:14;;;;;;;7.18;4.60;;;;;;;;;;5117320;28;20036;-72
2022/01/29 06:08:40;;;;;;;8.80;5.10;;;;;;;;;;5117314;28;20152;-72
2022/01/29 06:11:07;;;;;;;8.43;5.40;;;;;;;;;;5117353;28;20043;-72
2022/01/29 06:13:33;;;;;;;6.75;4.70;;;;;;;;;;5117487;28;20039;-72
2022/01/29 06:16:01;;;;;;;6.93;4.80;;;;;;;;;;5117158;28;20043;-72
2022/01/29 06:18:28;;;;;;;7.32;4.65;;;;;;;;;;5117154;28;20175;-72
2022/01/29 06:21:03;;;;;;;6.70;4.68;;;;;;;;;;5117681;28;20093;-72
2022/01/29 06:23:31;;;;;;;7.65;4.80;;;;;;;;;;5117370;28;20117;-72
2022/01/29 06:26:02;;;;;;;5.97;4.40;;;;;;;;;;5117813;28;20110;-71
2022/01/29 06:28:29;;;;;;;6.60;4.35;;;;;;;;;;5117017;28;20046;-72
2022/01/29 06:30:55;;;;;;;7.55;5.10;;;;;;;;;;5117032;28;20054;-71
2022/01/29 06:33:21;;;;;;;7.22;4.50;;;;;;;;;;5116590;28;20524;-72
2022/01/29 06:35:47;;;;;;;8.52;4.90;;;;;;;;;;5125836;27;20042;-72
2022/01/29 06:38:14;;;;;;;5.88;4.10;;;;;;;;;;5122802;27;20031;-72
2022/01/29 06:40:41;;;;;;;6.35;3.67;;;;;;;;;;5118040;27;20069;-72
2022/01/29 06:43:08;;;;;;;5.95;3.33;;;;;;;;;;5137479;27;20056;-72
2022/01/29 06:45:34;;;;;;;5.53;3.88;;;;;;;;;;5137405;27;20053;-72
2022/01/29 06:48:01;;;;;;;6.47;4.40;;;;;;;;;;5137351;27;20035;-72
2022/01/29 06:50:27;;;;;;;7.50;4.53;;;;;;;;;;5137192;27;20117;-72
2022/01/29 06:52:53;;;;;;;6.00;3.97;;;;;;;;;;5137077;27;20481;-72
2022/01/29 06:55:20;;;;;;;7.78;4.32;;;;;;;;;;5136944;27;20043;-72
2022/01/29 06:57:46;;;;;;;6.00;4.00;;;;;;;;;;5137207;27;20035;-72
2022/01/29 07:00:13;;;;;;;6.40;3.80;;;;;;;;;;5137272;27;20077;-72
2022/01/29 07:02:39;;;;;;;5.85;3.50;;;;;;;;;;5137003;27;20043;-72
2022/01/29 07:05:06;;;;;;;6.30;3.95;;;;;;;;;;5136907;27;20039;-72
2022/01/29 07:07:33;;;;;;;7.32;4.30;;;;;;;;;;5136835;27;20034;-72
2022/01/29 07:09:59;;;;;;;8.82;4.25;;;;;;;;;;5137047;27;20072;-72
2022/01/29 07:12:26;;;;;;;6.40;4.15;;;;;;;;;;5136576;27;20047;-72
2022/01/29 07:14:52;;;;;;;7.25;4.35;;;;;;;;;;5136283;27;20027;-72
2022/01/29 07:17:22;;;;;;;6.30;4.20;;;;;;;;;;5129844;27;20070;-72
2022/01/29 07:19:48;;;;;;;6.85;4.72;;;;;;;;;;5115211;28;20035;-72
2022/01/29 07:22:14;;;;;;;7.55;4.75;;;;;;;;;;5125234;27;20381;-72
2022/01/29 07:24:41;;;;;;;10.10;5.18;;;;;;;;;;5135636;27;20079;-71
2022/01/29 07:27:07;;;;;;;9.52;5.65;;;;;;;;;;5116422;27;20043;-72
2022/01/29 07:29:34;;;;;;;9.02;5.25;;;;;;;;;;5124726;27;20035;-72
2022/01/29 07:32:00;;;;;;;7.80;5.13;;;;;;;;;;5130587;27;20196;-72
2022/01/29 07:34:27;;;;;;;9.25;5.22;;;;;;;;;;5135804;27;20059;-72
2022/01/29 07:36:54;;;;;;;7.95;4.95;;;;;;;;;;5135958;27;20038;-71
2022/01/29 07:39:20;;;;;;;8.70;5.15;;;;;;;;;;5136262;27;20070;-72
2022/01/29 07:41:47;;;;;;;9.10;5.82;;;;;;;;;;5128382;27;20056;-72
2022/01/29 07:44:13;;;;;;;8.65;5.28;;;;;;;;;;5116352;27;20529;-71
2022/01/29 07:46:40;;;;;;;9.43;4.70;;;;;;;;;;5113244;28;20036;-72
2022/01/29 07:49:06;;;;;;;7.38;4.63;;;;;;;;;;5114287;28;20040;-71
2022/01/29 07:51:32;;;;;;;8.77;4.63;;;;;;;;;;5113988;28;20509;-72
2022/01/29 07:53:58;;;;;;;6.38;4.32;;;;;;;;;;5113608;28;20048;-72
2022/01/29 07:56:25;;;;;;;7.40;4.82;;;;;;;;;;5114356;28;20063;-72
2022/01/29 07:58:51;;;;;;;6.88;4.30;;;;;;;;;;5112351;28;20510;-72
2022/01/29 08:01:18;;;;;;;6.63;4.35;;;;;;;;;;5113616;27;20065;-71
2022/01/29 08:03:48;;;;;;;7.03;4.95;;;;;;;;;;5134224;27;20115;-71
2022/01/29 08:06:18;;;;;;;9.13;4.90;;;;;;;;;;5135614;27;20059;-71
2022/01/29 08:08:44;;;;;;;9.05;4.53;;;;;;;;;;5135681;27;20035;-71
2022/01/29 08:11:11;;;;;;;8.95;5.38;;;;;;;;;;5135740;27;20047;-71
2022/01/29 08:13:37;;;;;;;8.05;4.65;;;;;;;;;;5135948;27;20039;-71
2022/01/29 08:16:04;;;;;;;7.57;4.63;;;;;;;;;;5135627;28;20059;-72
2022/01/29 08:18:30;;;;;;;7.20;4.70;;;;;;;;;;5135449;28;20062;-71
2022/01/29 08:20:56;;;;;;;8.55;5.50;;;;;;;;;;5135502;28;20370;-71
2022/01/29 08:23:23;;;;;;;8.27;5.53;;;;;;;;;;5121103;28;20050;-70
2022/01/29 08:25:49;;;;;;;7.40;4.85;;;;;;;;;;5113313;28;20118;-70
2022/01/29 08:28:15;;;;;;;7.43;5.78;;;;;;;;;;5116739;28;20027;-70
2022/01/29 08:30:42;;;;;;;9.23;4.90;;;;;;;;;;5118309;27;20039;-70
2022/01/29 08:33:08;;;;;;;7.47;4.30;;;;;;;;;;5118305;27;20038;-71
2022/01/29 08:35:34;;;;;;;7.65;4.80;;;;;;;;;;5118475;28;20068;-71
2022/01/29 08:38:01;;;;;;;7.50;4.55;;;;;;;;;;5118734;28;20042;-72
2022/01/29 08:40:27;;;;;;;7.80;4.57;;;;;;;;;;5118823;28;20059;-71
2022/01/29 08:42:54;;;;;;;8.18;5.07;;;;;;;;;;5118716;28;20040;-71
2022/01/29 08:45:20;;;;;;;10.90;6.30;;;;;;;;;;5118755;28;20474;-71
2022/01/29 08:47:47;;;;;;;10.88;6.22;;;;;;;;;;5118926;28;20526;-71
2022/01/29 08:50:14;;;;;;;13.80;6.32;;;;;;;;;;5120767;27;20044;-72
2022/01/29 08:52:40;;;;;;;8.88;6.13;;;;;;;;;;5127051;27;20490;-71
2022/01/29 08:55:07;;;;;;;12.23;6.72;;;;;;;;;;5118009;28;20031;-72
2022/01/29 08:57:34;;;;;;;9.77;6.53;;;;;;;;;;5122082;27;20486;-72
2022/01/29 09:00:00;;;;;;;8.20;6.20;;;;;;;;;;5138033;27;20039;-72
2022/01/29 09:02:26;;;;;;;8.48;5.53;;;;;;;;;;5137642;27;20038;-71
2022/01/29 09:04:55;;;;;;;8.40;5.60;;;;;;;;;;5134278;27;20038;-71
2022/01/29 09:07:21;;;;;;;6.47;4.97;;;;;;;;;;5137095;27;20039;-71
2022/01/29 09:09:47;;;;;;;8.88;5.28;;;;;;;;;;5137247;27;20042;-71
2022/01/29 09:12:13;;;;;;;8.00;5.38;;;;;;;;;;5136460;27;20047;-72
2022/01/29 09:14:40;;;;;;;9.65;4.95;;;;;;;;;;5130757;27;20040;-72
2022/01/29 09:17:06;;;;;;;7.55;4.75;;;;;;;;;;5119209;27;20039;-70
2022/01/29 09:19:33;;;;;;;7.88;5.13;;;;;;;;;;5127968;27;20068;-71
2022/01/29 09:21:59;;;;;;;7.20;4.63;;;;;;;;;;5125443;27;20405;-71
2022/01/29 09:24:25;;;;;;;7.90;5.30;;;;;;;;;;5133500;27;20038;-71
2022/01/29 09:26:52;;;;;;;6.38;4.70;;;;;;;;;;5129445;27;20040;-71
2022/01/29 09:29:18;;;;;;;9.30;4.60;;;;;;;;;;5133106;27;20035;-70
2022/01/29 09:31:44;;;;;;;6.57;4.68;;;;;;;;;;5137013;27;20183;-71
2022/01/29 09:34:10;;;;;;;9.20;4.43;;;;;;;;;;5136620;27;20467;-71
2022/01/29 09:36:36;;;;;;;10.98;4.50;;;;;;;;;;5136454;27;20046;-70
2022/01/29 09:39:02;;;;;;;5.72;4.18;;;;;;;;;;5135175;27;20032;-72
2022/01/29 09:41:29;;;;;;;9.43;4.88;;;;;;;;;;5136330;27;20042;-71
2022/01/29 09:43:56;;;;;;;9.13;5.13;;;;;;;;;;5135968;27;20039;-71
2022/01/29 09:46:23;;;;;;;10.50;6.28;;;;;;;;;;5134266;27;20553;-70
2022/01/29 09:48:49;;;;;;;9.80;5.35;;;;;;;;;;5135973;27;20556;-70
2022/01/29 09:51:16;;;;;;;8.65;5.65;;;;;;;;;;5118206;27;20130;-72
2022/01/29 09:53:45;;;;;;;7.75;5.13;;;;;;;;;;5130995;27;20099;-69
2022/01/29 09:56:14;;;;;;;6.07;3.88;;;;;;;;;;5135945;27;20054;-70
2022/01/29 09:58:41;;;;;;;7.43;4.50;;;;;;;;;;5135469;27;20030;-70
2022/01/29 10:01:08;;;;;;;7.65;4.93;;;;;;;;;;5134795;27;20065;-70
2022/01/29 10:03:35;;;;;;;8.30;4.20;;;;;;;;;;5135405;27;20035;-70
2022/01/29 10:06:03;;;;;;;6.82;4.75;;;;;;;;;;5135873;27;20031;-70
2022/01/29 10:08:30;;;;;;;6.80;4.88;;;;;;;;;;5135431;27;20489;-70
2022/01/29 10:11:00;;;;;;;6.00;5.00;;;;;;;;;;5135563;27;20043;-71
2022/01/29 10:13:27;;;;;;;8.30;4.87;;;;;;;;;;5134704;27;20050;-70
2022/01/29 10:16:04;;;;;;;7.10;4.68;;;;;;;;;;5135439;27;20031;-70
2022/01/29 10:18:31;;;;;;;5.68;4.05;;;;;;;;;;5135499;27;20070;-70
2022/01/29 10:21:07;;;;;;;6.50;4.93;;;;;;;;;;5135373;27;20121;-70
2022/01/29 10:23:34;;;;;;;8.70;5.57;;;;;;;;;;5134970;27;20043;-68
2022/01/29 10:26:01;;;;;;;7.43;5.00;;;;;;;;;;5135437;27;20058;-68
2022/01/29 10:28:27;;;;;;;8.13;5.45;;;;;;;;;;5134950;27;20478;-68
2022/01/29 10:31:01;;;;;;;8.40;5.55;;;;;;;;;;5134480;27;20035;-68
2022/01/29 10:33:37;;;;;;;8.18;5.40;;;;;;;;;;5134052;27;20081;-69
2022/01/29 10:36:10;;;;;;;9.20;5.85;;;;;;;;;;5134481;27;20035;-68
2022/01/29 10:38:53;;;;;;;9.95;6.18;;;;;;;;;;5135088;27;20046;-68
2022/01/29 10:41:25;;;;;;;7.90;5.55;;;;;;;;;;5134696;27;20051;-68
2022/01/29 10:43:54;;;;;;;8.35;6.30;;;;;;;;;;5134824;27;20494;-68
2022/01/29 10:46:24;;;;;;;9.80;6.68;;;;;;;;;;5135159;27;20023;-69
2022/01/29 10:48:50;;;;;;;8.93;6.15;;;;;;;;;;5134921;27;20118;-68
2022/01/29 10:51:16;;;;;;;10.55;6.70;;;;;;;;;;5127153;27;20061;-68
2022/01/29 10:53:43;;;;;;;6.95;5.07;;;;;;;;;;5114663;28;20043;-68
2022/01/29 10:56:09;;;;;;;6.95;5.60;;;;;;;;;;5113795;28;20086;-69
2022/01/29 10:58:42;;;;;;;9.13;5.97;;;;;;;;;;5114230;28;20119;-68
2022/01/29 11:01:15;;;;;;;8.73;6.07;;;;;;;;;;5114386;28;20047;-71
2022/01/29 11:03:42;;;;;;;7.40;5.05;;;;;;;;;;5116155;27;20518;-70
2022/01/29 11:06:19;;;;;;;7.82;5.18;;;;;;;;;;5131979;27;20034;-69
2022/01/29 11:08:45;;;;;;;8.68;5.70;;;;;;;;;;5134618;27;20118;-72
2022/01/29 11:11:13;;;;;;;7.78;4.97;;;;;;;;;;5133958;27;20043;-69
2022/01/29 11:13:40;;;;;;;6.93;5.30;;;;;;;;;;5132882;27;20508;-69
2022/01/29 11:16:06;;;;;;;6.28;4.90;;;;;;;;;;5133543;27;20039;-69
2022/01/29 11:18:33;;;;;;;4.90;3.97;;;;;;;;;;5134664;27;20533;-71
2022/01/29 11:21:01;;;;;;;5.63;4.45;;;;;;;;;;5134564;27;20126;-68
2022/01/29 11:23:28;;;;;;;5.80;4.43;;;;;;;;;;5134658;27;20031;-70
2022/01/29 11:25:59;;;;;;;6.88;4.90;;;;;;;;;;5135117;27;20165;-70
2022/01/29 11:28:26;;;;;;;;;;;;;;;;;;5135439;27;20119;-69
2022/01/29 11:31:28;;;;;;;7.13;5.18;;;;;;;;;;5134813;27;19990;-70
2022/01/29 11:34:00;;;;;;;7.82;4.65;;;;;;;;;;5080520;27;20102;-70
2022/01/29 11:36:45;;;;;;;7.38;4.50;;;;;;;;;;5135911;27;20043;-70
2022/01/29 11:39:20;;;;;;;8.25;4.88;;;;;;;;;;5133908;27;20027;-70
2022/01/29 11:41:46;;;;;;;8.45;5.15;;;;;;;;;;5135193;27;20045;-70
2022/01/29 11:44:38;;;;;;;9.63;5.95;;;;;;;;;;5135834;27;20046;-70
2022/01/29 11:47:23;;;;;;;8.35;5.35;;;;;;;;;;5130744;27;20038;-70
2022/01/29 11:49:50;;;;;;;6.60;5.03;;;;;;;;;;5134938;27;20039;-70
2022/01/29 11:52:23;;;;;;;6.75;5.15;;;;;;;;;;5135571;27;20039;-70
2022/01/29 11:55:02;;;;;;;5.88;4.15;;;;;;;;;;5135602;27;20039;-70
2022/01/29 11:57:28;;;;;;;10.85;5.20;;;;;;;;;;5135127;27;20488;-69
2022/01/29 11:59:54;;;;;;;7.10;5.47;;;;;;;;;;5135622;27;20050;-70
2022/01/29 12:02:20;;;;;;;8.90;4.50;;;;;;;;;;5134951;27;20115;-70
2022/01/29 12:04:50;;;;;;;6.35;4.75;;;;;;;;;;5135470;27;20035;-70
2022/01/29 12:07:24;;;;;;;7.80;5.30;;;;;;;;;;5135332;27;20035;-70
2022/01/29 12:09:54;;;;;;;9.05;6.15;;;;;;;;;;5135823;27;20027;-70
2022/01/29 12:12:22;;;;;;;8.80;5.90;;;;;;;;;;5114628;28;20067;-70
2022/01/29 12:14:50;;;;;;;9.55;5.75;;;;;;;;;;5114489;28;20112;-70
2022/01/29 12:17:35;;;;;;;13.25;7.43;;;;;;;;;;5114340;28;20039;-70
2022/01/29 12:20:02;;;;;;;11.77;6.90;;;;;;;;;;5115109;28;20057;-70
2022/01/29 12:22:32;;;;;;;9.32;6.25;;;;;;;;;;5114666;28;20043;-70
2022/01/29 12:24:59;;;;;;;7.35;5.15;;;;;;;;;;5114854;28;20032;-70
2022/01/29 12:27:39;;;;;;;7.72;5.05;;;;;;;;;;5114558;28;20517;-70
2022/01/29 12:30:06;;;;;;;7.70;5.18;;;;;;;;;;5114810;28;20038;-70
2022/01/29 12:32:32;;;;;;;7.90;5.07;;;;;;;;;;5114605;28;20035;-70
2022/01/29 12:34:59;;;;;;;6.47;3.97;;;;;;;;;;5114231;28;20031;-70
2022/01/29 12:37:25;;;;;;;6.43;4.07;;;;;;;;;;5114103;28;20457;-70
2022/01/29 12:40:05;;;;;;;5.03;3.08;;;;;;;;;;5114814;28;20074;-70
2022/01/29 12:42:43;;;;;;;6.57;3.95;;;;;;;;;;5114518;28;20054;-70
2022/01/29 12:45:09;;;;;;;6.05;3.28;;;;;;;;;;5114076;28;20031;-70
2022/01/29 12:47:36;;;;;;;6.65;3.35;;;;;;;;;;5114540;28;20036;-70
2022/01/29 12:50:03;;;;;;;5.28;3.47;;;;;;;;;;5114772;28;20042;-70
2022/01/29 12:52:30;;;;;;;4.40;3.03;;;;;;;;;;5114627;28;20137;-70
2022/01/29 12:55:00;;;;;;;6.00;3.80;;;;;;;;;;5114188;28;20385;-70
2022/01/29 12:57:40;;;;;;;5.35;3.03;;;;;;;;;;5114154;28;20031;-70
2022/01/29 13:00:10;;;;;;;6.85;4.43;;;;;;;;;;5114548;28;20047;-70
2022/01/29 13:02:36;;;;;;;3.93;3.03;;;;;;;;;;5114207;28;20667;-70
2022/01/29 13:05:02;;;;;;;4.88;3.25;;;;;;;;;;5113866;28;20273;-70
2022/01/29 13:07:29;;;;;;;4.38;3.05;;;;;;;;;;5114292;28;20039;-70
2022/01/29 13:09:55;;;;;;;6.75;3.45;;;;;;;;;;5114852;28;20032;-70
2022/01/29 13:12:22;;;;;;;4.72;3.30;;;;;;;;;;5135359;28;20081;-70
2022/01/29 13:14:52;;;;;;;4.50;3.50;;;;;;;;;;5136713;27;20039;-70
2022/01/29 13:17:22;;;;;;;6.72;4.93;;;;;;;;;;5138493;27;20027;-70
2022/01/29 13:19:50;;;;;;;7.78;4.63;;;;;;;;;;5138924;27;20517;-70
2022/01/29 13:22:16;;;;;;;7.40;4.45;;;;;;;;;;5138404;27;20035;-70
2022/01/29 13:24:48;;;;;;;7.65;4.55;;;;;;;;;;5138563;27;20043;-70
2022/01/29 13:27:18;;;;;;;11.70;5.80;;;;;;;;;;5137973;27;20062;-70
2022/01/29 13:29:49;;;;;;;9.82;5.05;;;;;;;;;;5138116;27;20039;-70
2022/01/29 13:32:16;;;;;;;9.73;5.45;;;;;;;;;;5137961;27;20038;-70
2022/01/29 13:34:44;;;;;;;9.75;5.90;;;;;;;;;;5137640;27;20043;-70
2022/01/29 13:37:28;;;;;;;10.02;6.80;;;;;;;;;;5137761;27;20035;-70
2022/01/29 13:39:55;;;;;;;10.55;5.50;;;;;;;;;;5138648;27;20035;-70
2022/01/29 13:42:22;;;;;;;10.68;6.47;;;;;;;;;;5138443;27;20035;-70
2022/01/29 13:45:22;;;;;;;13.00;8.23;;;;;;;;;;5138170;27;20039;-70
2022/01/29 13:48:10;;;;;;;11.40;7.25;;;;;;;;;;5082814;27;20039;-70
2022/01/29 13:50:57;;;;;;;11.70;7.15;;;;;;;;;;5138006;27;20031;-70
2022/01/29 13:53:24;;;;;;;9.57;6.15;;;;;;;;;;5137750;27;20039;-70
2022/01/29 13:56:05;;;;;;;9.90;6.97;;;;;;;;;;5138322;27;20059;-70
2022/01/29 13:58:50;;;;;;;12.57;8.65;;;;;;;;;;5137672;27;20066;-70
2022/01/29 14:01:32;;;;;;;11.35;7.18;;;;;;;;;;5137137;27;20038;-70
2022/01/29 14:03:59;;;;;;;12.13;6.13;;;;;;;;;;5138159;27;20038;-70
2022/01/29 14:06:30;;;;;;;9.50;6.03;;;;;;;;;;5137848;27;20031;-70
2022/01/29 14:09:18;;;;;;;10.43;4.68;;;;;;;;;;5137851;27;20035;-70
2022/01/29 14:11:53;;;;;;;10.85;6.95;;;;;;;;;;5137939;27;20043;-70
2022/01/29 14:14:20;;;;;;;9.18;6.03;;;;;;;;;;5136534;27;20035;-70
2022/01/29 14:16:46;;;;;;;8.50;6.03;;;;;;;;;;5137788;27;20035;-70
2022/01/29 14:19:19;;;;;;;11.52;6.88;;;;;;;;;;5137227;27;20039;-70
2022/01/29 14:21:50;;;;;;;10.40;6.82;;;;;;;;;;5137622;27;20035;-70
2022/01/29 14:24:17;;;;;;;12.23;7.53;;;;;;;;;;5137171;27;20404;-70
2022/01/29 14:26:43;;;;;;;11.45;7.63;;;;;;;;;;5137069;27;20493;-70
2022/01/29 14:29:09;;;;;;;15.45;9.23;;;;;;;;;;5137514;27;20069;-70
2022/01/29 14:31:36;;;;;;;15.13;9.32;;;;;;;;;;5137493;27;20047;-70
2022/01/29 14:34:05;;;;;;;14.07;10.30;;;;;;;;;;5137357;27;20114;-70
2022/01/29 14:36:31;;;;;;;15.43;9.60;;;;;;;;;;5137663;27;20039;-70
2022/01/29 14:38:57;;;;;;;14.32;9.10;;;;;;;;;;5137158;27;20477;-70
2022/01/29 14:41:23;;;;;;;11.77;7.95;;;;;;;;;;5137140;27;20047;-70
2022/01/29 14:43:49;;;;;;;12.85;8.15;;;;;;;;;;5137223;27;20509;-70
2022/01/29 14:46:15;;;;;;;12.68;7.18;;;;;;;;;;5137074;27;20088;-70
2022/01/29 14:48:42;;;;;;;9.07;5.40;;;;;;;;;;5137067;27;20069;-70
2022/01/29 14:51:09;;;;;;;5.32;4.07;;;;;;;;;;5136684;27;20050;-70
2022/01/29 14:53:35;;;;;;;6.00;4.00;;;;;;;;;;5137128;27;20027;-70
2022/01/29 14:56:02;;;;;;;6.45;4.13;;;;;;;;;;5137411;27;20039;-70